Terminal Aerodrome Forecast
Issued by NWS St Louis, MO

Home | Current Version | Previous Version | Text Only | Print | Product List | Glossary On
Versions: 1 2 3 4 5 6 7 8 9 10 11 12 13 14 15 16 17 18 19 20 21
652
FTUS43 KLSX 211740
TAFCOU
TAF
KCOU 211740Z 2118/2218 22008KT P6SM BKN250
     FM212000 21009KT P6SM VCTS BKN050CB
     FM220000 21008KT P6SM BKN100
     FM220700 23007KT P6SM -SHRA VCTS BKN060CB
      TEMPO 2207/2211 4SM -TSRA BKN030CB
     FM221300 24005KT 4SM -SHRA OVC040
     FM221500 26006KT P6SM OVC025=

USA.gov is the U.S. government's official web portal to all federal, state and local government web resources and services.